sensor_id;sensor_type;location;lat;lon;timestamp;P1;durP1;ratioP1;P2;durP2;ratioP2
13319;SDS011;59599;47.608;12.190;2023-07-08T04:02:12;8.53;;;6.90;;
13319;SDS011;59599;47.608;12.190;2023-07-08T04:04:44;11.10;;;7.60;;
13319;SDS011;59599;47.608;12.190;2023-07-08T04:08:10;10.77;;;7.50;;
13319;SDS011;59599;47.608;12.190;2023-07-08T04:11:01;8.93;;;7.10;;
13319;SDS011;59599;47.608;12.190;2023-07-08T04:14:07;12.57;;;7.67;;
13319;SDS011;59599;47.608;12.190;2023-07-08T04:16:44;9.13;;;7.30;;
13319;SDS011;59599;47.608;12.190;2023-07-08T04:19:22;11.97;;;7.03;;
13319;SDS011;59599;47.608;12.190;2023-07-08T04:21:48;12.50;;;7.93;;
13319;SDS011;59599;47.608;12.190;2023-07-08T04:24:15;12.80;;;7.73;;
13319;SDS011;59599;47.608;12.190;2023-07-08T04:26:41;10.07;;;6.97;;
13319;SDS011;59599;47.608;12.190;2023-07-08T04:29:14;9.93;;;6.77;;
13319;SDS011;59599;47.608;12.190;2023-07-08T04:31:40;8.87;;;6.40;;
13319;SDS011;59599;47.608;12.190;2023-07-08T04:34:07;8.47;;;7.33;;
13319;SDS011;59599;47.608;12.190;2023-07-08T04:36:33;10.57;;;7.37;;
13319;SDS011;59599;47.608;12.190;2023-07-08T04:38:59;11.37;;;7.80;;
13319;SDS011;59599;47.608;12.190;2023-07-08T04:41:25;9.80;;;7.57;;
13319;SDS011;59599;47.608;12.190;2023-07-08T04:43:52;10.40;;;7.50;;
13319;SDS011;59599;47.608;12.190;2023-07-08T04:46:31;10.20;;;7.37;;
13319;SDS011;59599;47.608;12.190;2023-07-08T04:49:00;13.27;;;7.80;;
13319;SDS011;59599;47.608;12.190;2023-07-08T04:51:26;10.50;;;7.17;;
13319;SDS011;59599;47.608;12.190;2023-07-08T04:53:51;11.70;;;7.10;;
13319;SDS011;59599;47.608;12.190;2023-07-08T04:56:17;11.40;;;7.37;;
13319;SDS011;59599;47.608;12.190;2023-07-08T04:58:43;14.17;;;7.47;;
13319;SDS011;59599;47.608;12.190;2023-07-08T05:01:09;9.63;;;7.30;;
13319;SDS011;59599;47.608;12.190;2023-07-08T05:03:35;9.57;;;6.63;;
13319;SDS011;59599;47.608;12.190;2023-07-08T05:06:01;10.90;;;7.23;;
13319;SDS011;59599;47.608;12.190;2023-07-08T05:08:27;11.37;;;7.20;;
13319;SDS011;59599;47.608;12.190;2023-07-08T05:10:53;13.17;;;7.23;;
13319;SDS011;59599;47.608;12.190;2023-07-08T05:13:19;13.52;;;7.07;;
13319;SDS011;59599;47.608;12.190;2023-07-08T05:15:45;13.10;;;7.85;;
13319;SDS011;59599;47.608;12.190;2023-07-08T05:18:11;10.83;;;7.37;;
13319;SDS011;59599;47.608;12.190;2023-07-08T05:20:37;8.70;;;7.28;;
13319;SDS011;59599;47.608;12.190;2023-07-08T05:23:03;13.17;;;7.87;;
13319;SDS011;59599;47.608;12.190;2023-07-08T05:25:31;11.73;;;7.63;;
13319;SDS011;59599;47.608;12.190;2023-07-08T05:27:57;13.02;;;6.80;;
13319;SDS011;59599;47.608;12.190;2023-07-08T05:30:23;11.13;;;7.20;;
13319;SDS011;59599;47.608;12.190;2023-07-08T05:32:48;8.80;;;7.45;;
13319;SDS011;59599;47.608;12.190;2023-07-08T05:35:14;9.57;;;6.65;;
13319;SDS011;59599;47.608;12.190;2023-07-08T05:37:40;9.00;;;6.95;;
13319;SDS011;59599;47.608;12.190;2023-07-08T05:40:09;9.27;;;7.22;;
13319;SDS011;59599;47.608;12.190;2023-07-08T05:42:36;12.02;;;8.23;;
13319;SDS011;59599;47.608;12.190;2023-07-08T05:45:02;11.93;;;7.65;;
13319;SDS011;59599;47.608;12.190;2023-07-08T05:47:28;10.15;;;6.85;;
13319;SDS011;59599;47.608;12.190;2023-07-08T05:49:54;11.02;;;7.35;;
13319;SDS011;59599;47.608;12.190;2023-07-08T05:52:20;12.30;;;7.13;;
13319;SDS011;59599;47.608;12.190;2023-07-08T05:54:46;9.25;;;7.30;;
13319;SDS011;59599;47.608;12.190;2023-07-08T05:57:12;12.63;;;8.10;;
13319;SDS011;59599;47.608;12.190;2023-07-08T05:59:38;9.85;;;7.13;;
13319;SDS011;59599;47.608;12.190;2023-07-08T06:02:04;13.27;;;6.80;;
13319;SDS011;59599;47.608;12.190;2023-07-08T06:04:31;10.32;;;7.75;;
13319;SDS011;59599;47.608;12.190;2023-07-08T06:06:57;12.77;;;7.60;;
13319;SDS011;59599;47.608;12.190;2023-07-08T06:09:23;9.07;;;7.20;;
13319;SDS011;59599;47.608;12.190;2023-07-08T06:11:49;11.02;;;7.22;;
13319;SDS011;59599;47.608;12.190;2023-07-08T06:14:15;10.88;;;7.25;;
13319;SDS011;59599;47.608;12.190;2023-07-08T06:16:41;9.25;;;7.03;;
13319;SDS011;59599;47.608;12.190;2023-07-08T06:19:07;10.90;;;6.88;;
13319;SDS011;59599;47.608;12.190;2023-07-08T06:21:33;10.05;;;7.10;;
13319;SDS011;59599;47.608;12.190;2023-07-08T06:23:59;12.70;;;7.10;;
13319;SDS011;59599;47.608;12.190;2023-07-08T06:26:25;9.27;;;6.88;;
13319;SDS011;59599;47.608;12.190;2023-07-08T06:28:51;11.35;;;7.22;;
13319;SDS011;59599;47.608;12.190;2023-07-08T06:31:17;9.52;;;6.30;;
13319;SDS011;59599;47.608;12.190;2023-07-08T06:33:43;12.35;;;7.70;;
13319;SDS011;59599;47.608;12.190;2023-07-08T06:36:09;8.98;;;6.70;;
13319;SDS011;59599;47.608;12.190;2023-07-08T06:38:35;12.63;;;7.25;;
13319;SDS011;59599;47.608;12.190;2023-07-08T06:41:01;11.07;;;7.32;;
13319;SDS011;59599;47.608;12.190;2023-07-08T06:43:27;9.30;;;6.90;;
13319;SDS011;59599;47.608;12.190;2023-07-08T06:45:53;10.20;;;7.35;;
13319;SDS011;59599;47.608;12.190;2023-07-08T06:48:19;8.77;;;7.05;;
13319;SDS011;59599;47.608;12.190;2023-07-08T06:50:45;11.68;;;7.32;;
13319;SDS011;59599;47.608;12.190;2023-07-08T06:53:12;10.80;;;7.38;;
13319;SDS011;59599;47.608;12.190;2023-07-08T06:55:38;9.20;;;7.20;;
13319;SDS011;59599;47.608;12.190;2023-07-08T06:58:04;9.13;;;7.05;;
13319;SDS011;59599;47.608;12.190;2023-07-08T07:00:30;9.32;;;7.18;;
13319;SDS011;59599;47.608;12.190;2023-07-08T07:02:56;8.98;;;6.82;;
13319;SDS011;59599;47.608;12.190;2023-07-08T07:05:21;8.90;;;7.13;;
13319;SDS011;59599;47.608;12.190;2023-07-08T07:07:47;9.80;;;6.72;;
13319;SDS011;59599;47.608;12.190;2023-07-08T07:10:13;12.85;;;6.90;;
13319;SDS011;59599;47.608;12.190;2023-07-08T07:12:39;11.02;;;7.05;;
13319;SDS011;59599;47.608;12.190;2023-07-08T07:15:05;10.27;;;6.38;;
13319;SDS011;59599;47.608;12.190;2023-07-08T07:17:31;7.65;;;6.72;;
13319;SDS011;59599;47.608;12.190;2023-07-08T07:19:57;7.80;;;6.32;;
13319;SDS011;59599;47.608;12.190;2023-07-08T07:22:25;10.52;;;7.00;;
13319;SDS011;59599;47.608;12.190;2023-07-08T07:24:54;8.93;;;7.10;;
13319;SDS011;59599;47.608;12.190;2023-07-08T07:27:20;8.50;;;6.80;;
13319;SDS011;59599;47.608;12.190;2023-07-08T07:29:47;10.18;;;6.82;;
13319;SDS011;59599;47.608;12.190;2023-07-08T07:32:13;9.80;;;7.63;;
13319;SDS011;59599;47.608;12.190;2023-07-08T07:34:39;9.52;;;6.82;;
13319;SDS011;59599;47.608;12.190;2023-07-08T07:37:06;10.10;;;6.40;;
13319;SDS011;59599;47.608;12.190;2023-07-08T07:39:32;9.38;;;6.82;;
13319;SDS011;59599;47.608;12.190;2023-07-08T07:41:58;7.30;;;6.43;;
13319;SDS011;59599;47.608;12.190;2023-07-08T07:44:24;11.40;;;7.07;;
13319;SDS011;59599;47.608;12.190;2023-07-08T07:46:51;9.55;;;7.05;;
13319;SDS011;59599;47.608;12.190;2023-07-08T07:49:18;8.38;;;6.80;;
13319;SDS011;59599;47.608;12.190;2023-07-08T07:51:44;6.80;;;6.07;;
13319;SDS011;59599;47.608;12.190;2023-07-08T07:54:10;9.25;;;6.32;;
13319;SDS011;59599;47.608;12.190;2023-07-08T07:56:36;9.38;;;6.80;;
13319;SDS011;59599;47.608;12.190;2023-07-08T07:59:02;8.93;;;6.47;;
13319;SDS011;59599;47.608;12.190;2023-07-08T08:01:28;8.13;;;6.50;;
13319;SDS011;59599;47.608;12.190;2023-07-08T08:03:55;10.63;;;6.90;;
13319;SDS011;59599;47.608;12.190;2023-07-08T08:06:20;9.05;;;6.72;;
13319;SDS011;59599;47.608;12.190;2023-07-08T08:08:46;9.70;;;6.72;;
13319;SDS011;59599;47.608;12.190;2023-07-08T08:11:14;7.43;;;6.32;;
13319;SDS011;59599;47.608;12.190;2023-07-08T08:13:41;8.35;;;6.22;;
13319;SDS011;59599;47.608;12.190;2023-07-08T08:16:07;10.82;;;6.53;;
13319;SDS011;59599;47.608;12.190;2023-07-08T08:18:33;7.78;;;6.20;;
13319;SDS011;59599;47.608;12.190;2023-07-08T08:20:59;7.72;;;6.35;;
13319;SDS011;59599;47.608;12.190;2023-07-08T08:23:25;11.23;;;6.35;;
13319;SDS011;59599;47.608;12.190;2023-07-08T08:25:51;8.95;;;5.60;;
13319;SDS011;59599;47.608;12.190;2023-07-08T08:28:17;8.80;;;5.82;;
13319;SDS011;59599;47.608;12.190;2023-07-08T08:30:46;8.07;;;5.80;;
13319;SDS011;59599;47.608;12.190;2023-07-08T08:33:13;8.98;;;5.57;;
13319;SDS011;59599;47.608;12.190;2023-07-08T08:35:39;8.02;;;5.93;;
13319;SDS011;59599;47.608;12.190;2023-07-08T08:38:04;8.93;;;5.50;;
13319;SDS011;59599;47.608;12.190;2023-07-08T08:40:31;10.55;;;5.95;;
13319;SDS011;59599;47.608;12.190;2023-07-08T08:42:58;11.50;;;6.20;;
13319;SDS011;59599;47.608;12.190;2023-07-08T08:45:44;11.23;;;6.30;;
13319;SDS011;59599;47.608;12.190;2023-07-08T08:48:15;7.80;;;5.90;;
13319;SDS011;59599;47.608;12.190;2023-07-08T08:50:51;9.20;;;6.13;;
13319;SDS011;59599;47.608;12.190;2023-07-08T08:53:18;9.52;;;6.40;;
13319;SDS011;59599;47.608;12.190;2023-07-08T08:55:54;10.70;;;5.85;;
13319;SDS011;59599;47.608;12.190;2023-07-08T09:01:03;8.98;;;6.03;;
13319;SDS011;59599;47.608;12.190;2023-07-08T09:03:49;9.48;;;5.88;;
13319;SDS011;59599;47.608;12.190;2023-07-08T09:06:19;7.95;;;5.90;;
13319;SDS011;59599;47.608;12.190;2023-07-08T09:08:45;8.32;;;6.38;;
13319;SDS011;59599;47.608;12.190;2023-07-08T09:13:38;8.63;;;5.97;;
13319;SDS011;59599;47.608;12.190;2023-07-08T09:16:07;10.70;;;6.60;;
13319;SDS011;59599;47.608;12.190;2023-07-08T09:21:45;7.07;;;5.90;;
13319;SDS011;59599;47.608;12.190;2023-07-08T09:24:16;8.57;;;5.97;;
13319;SDS011;59599;47.608;12.190;2023-07-08T09:26:43;6.45;;;5.30;;
13319;SDS011;59599;47.608;12.190;2023-07-08T09:29:12;9.00;;;5.88;;
13319;SDS011;59599;47.608;12.190;2023-07-08T09:31:38;8.48;;;5.93;;
13319;SDS011;59599;47.608;12.190;2023-07-08T09:34:17;8.82;;;5.78;;
13319;SDS011;59599;47.608;12.190;2023-07-08T09:36:44;8.30;;;6.15;;
13319;SDS011;59599;47.608;12.190;2023-07-08T09:39:15;7.68;;;5.18;;
13319;SDS011;59599;47.608;12.190;2023-07-08T09:41:42;8.38;;;6.22;;
13319;SDS011;59599;47.608;12.190;2023-07-08T09:46:42;7.63;;;5.72;;
13319;SDS011;59599;47.608;12.190;2023-07-08T09:49:24;14.90;;;6.45;;
13319;SDS011;59599;47.608;12.190;2023-07-08T09:51:52;9.35;;;5.53;;
13319;SDS011;59599;47.608;12.190;2023-07-08T09:54:19;8.35;;;5.55;;
13319;SDS011;59599;47.608;12.190;2023-07-08T09:56:50;8.25;;;5.78;;
13319;SDS011;59599;47.608;12.190;2023-07-08T09:59:19;6.60;;;5.40;;
13319;SDS011;59599;47.608;12.190;2023-07-08T10:01:48;7.50;;;5.75;;
13319;SDS011;59599;47.608;12.190;2023-07-08T10:04:14;9.35;;;6.03;;
13319;SDS011;59599;47.608;12.190;2023-07-08T10:06:43;10.07;;;6.13;;
13319;SDS011;59599;47.608;12.190;2023-07-08T10:09:12;8.27;;;6.10;;
13319;SDS011;59599;47.608;12.190;2023-07-08T10:11:46;6.25;;;5.60;;
13319;SDS011;59599;47.608;12.190;2023-07-08T10:16:44;8.63;;;5.80;;
13319;SDS011;59599;47.608;12.190;2023-07-08T10:19:15;8.50;;;5.45;;
13319;SDS011;59599;47.608;12.190;2023-07-08T10:26:44;8.05;;;5.43;;
13319;SDS011;59599;47.608;12.190;2023-07-08T10:31:47;7.60;;;5.40;;
13319;SDS011;59599;47.608;12.190;2023-07-08T10:39:59;8.65;;;4.97;;
13319;SDS011;59599;47.608;12.190;2023-07-08T10:53:36;6.70;;;4.95;;
13319;SDS011;59599;47.608;12.190;2023-07-08T10:55:57;7.95;;;5.55;;
13319;SDS011;59599;47.608;12.190;2023-07-08T11:03:47;10.38;;;5.07;;
13319;SDS011;59599;47.608;12.190;2023-07-08T11:06:41;9.65;;;5.50;;
13319;SDS011;59599;47.608;12.190;2023-07-08T11:09:10;8.73;;;6.20;;
13319;SDS011;59599;47.608;12.190;2023-07-08T11:11:58;9.18;;;5.90;;
13319;SDS011;59599;47.608;12.190;2023-07-08T11:14:27;6.20;;;5.57;;
13319;SDS011;59599;47.608;12.190;2023-07-08T11:17:10;8.57;;;5.20;;
13319;SDS011;59599;47.608;12.190;2023-07-08T11:19:42;8.82;;;5.95;;
13319;SDS011;59599;47.608;12.190;2023-07-08T11:22:16;7.60;;;5.70;;
13319;SDS011;59599;47.608;12.190;2023-07-08T11:24:46;12.55;;;5.82;;
13319;SDS011;59599;47.608;12.190;2023-07-08T11:27:21;7.40;;;5.65;;
13319;SDS011;59599;47.608;12.190;2023-07-08T11:29:54;8.40;;;6.13;;
13319;SDS011;59599;47.608;12.190;2023-07-08T11:32:20;14.60;;;5.88;;
13319;SDS011;59599;47.608;12.190;2023-07-08T11:34:51;9.77;;;6.22;;
13319;SDS011;59599;47.608;12.190;2023-07-08T11:37:18;8.18;;;5.80;;
13319;SDS011;59599;47.608;12.190;2023-07-08T11:39:46;8.80;;;5.50;;
13319;SDS011;59599;47.608;12.190;2023-07-08T11:42:42;10.43;;;5.63;;
13319;SDS011;59599;47.608;12.190;2023-07-08T11:45:42;10.52;;;5.65;;
13319;SDS011;59599;47.608;12.190;2023-07-08T11:48:23;12.05;;;5.78;;
13319;SDS011;59599;47.608;12.190;2023-07-08T11:50:50;8.68;;;5.90;;
13319;SDS011;59599;47.608;12.190;2023-07-08T11:55:56;9.38;;;5.90;;
13319;SDS011;59599;47.608;12.190;2023-07-08T11:58:24;8.13;;;5.93;;
13319;SDS011;59599;47.608;12.190;2023-07-08T12:01:04;10.25;;;6.20;;
13319;SDS011;59599;47.608;12.190;2023-07-08T12:03:37;8.52;;;6.07;;
13319;SDS011;59599;47.608;12.190;2023-07-08T12:08:51;10.48;;;5.75;;
13319;SDS011;59599;47.608;12.190;2023-07-08T12:11:18;11.63;;;5.72;;
13319;SDS011;59599;47.608;12.190;2023-07-08T12:13:48;11.43;;;6.10;;
13319;SDS011;59599;47.608;12.190;2023-07-08T12:16:14;8.63;;;5.40;;
13319;SDS011;59599;47.608;12.190;2023-07-08T12:18:40;8.00;;;5.65;;
13319;SDS011;59599;47.608;12.190;2023-07-08T12:21:11;6.20;;;5.20;;
13319;SDS011;59599;47.608;12.190;2023-07-08T12:23:43;11.20;;;5.45;;
13319;SDS011;59599;47.608;12.190;2023-07-08T12:26:09;9.45;;;6.07;;
13319;SDS011;59599;47.608;12.190;2023-07-08T12:28:36;7.53;;;5.50;;
13319;SDS011;59599;47.608;12.190;2023-07-08T12:31:04;7.43;;;5.65;;
13319;SDS011;59599;47.608;12.190;2023-07-08T12:33:37;7.22;;;5.65;;
13319;SDS011;59599;47.608;12.190;2023-07-08T12:36:04;8.63;;;5.53;;
13319;SDS011;59599;47.608;12.190;2023-07-08T12:38:31;7.35;;;5.88;;
13319;SDS011;59599;47.608;12.190;2023-07-08T12:41:10;10.02;;;5.85;;
13319;SDS011;59599;47.608;12.190;2023-07-08T12:43:37;9.73;;;6.10;;
13319;SDS011;59599;47.608;12.190;2023-07-08T12:46:03;10.18;;;5.93;;
13319;SDS011;59599;47.608;12.190;2023-07-08T12:48:36;8.15;;;5.88;;
13319;SDS011;59599;47.608;12.190;2023-07-08T12:51:03;9.52;;;5.78;;
13319;SDS011;59599;47.608;12.190;2023-07-08T12:53:29;9.85;;;6.72;;
13319;SDS011;59599;47.608;12.190;2023-07-08T12:55:57;9.75;;;6.13;;
13319;SDS011;59599;47.608;12.190;2023-07-08T12:58:25;11.10;;;6.30;;
13319;SDS011;59599;47.608;12.190;2023-07-08T13:00:52;7.47;;;6.05;;
13319;SDS011;59599;47.608;12.190;2023-07-08T13:03:19;8.77;;;6.38;;
13319;SDS011;59599;47.608;12.190;2023-07-08T13:05:47;8.52;;;5.72;;
13319;SDS011;59599;47.608;12.190;2023-07-08T13:08:14;10.32;;;6.07;;
13319;SDS011;59599;47.608;12.190;2023-07-08T13:10:40;8.20;;;5.97;;
13319;SDS011;59599;47.608;12.190;2023-07-08T13:13:08;8.65;;;5.88;;
13319;SDS011;59599;47.608;12.190;2023-07-08T13:15:36;8.32;;;5.93;;
13319;SDS011;59599;47.608;12.190;2023-07-08T13:18:05;8.30;;;5.70;;
13319;SDS011;59599;47.608;12.190;2023-07-08T13:20:31;10.10;;;6.03;;
13319;SDS011;59599;47.608;12.190;2023-07-08T13:22:59;6.90;;;6.20;;
13319;SDS011;59599;47.608;12.190;2023-07-08T13:25:29;11.70;;;6.00;;
13319;SDS011;59599;47.608;12.190;2023-07-08T13:28:15;8.13;;;5.78;;
13319;SDS011;59599;47.608;12.190;2023-07-08T13:30:49;8.85;;;6.03;;
13319;SDS011;59599;47.608;12.190;2023-07-08T13:33:17;10.02;;;5.63;;
13319;SDS011;59599;47.608;12.190;2023-07-08T13:35:43;12.85;;;6.40;;
13319;SDS011;59599;47.608;12.190;2023-07-08T13:38:16;8.32;;;5.55;;
13319;SDS011;59599;47.608;12.190;2023-07-08T13:40:45;11.02;;;6.07;;
13319;SDS011;59599;47.608;12.190;2023-07-08T13:43:12;13.85;;;6.18;;
13319;SDS011;59599;47.608;12.190;2023-07-08T13:45:40;8.57;;;6.50;;
13319;SDS011;59599;47.608;12.190;2023-07-08T13:48:14;7.40;;;5.78;;
13319;SDS011;59599;47.608;12.190;2023-07-08T13:50:43;9.77;;;5.85;;
13319;SDS011;59599;47.608;12.190;2023-07-08T13:53:16;6.97;;;5.63;;
13319;SDS011;59599;47.608;12.190;2023-07-08T13:55:46;7.60;;;5.63;;
13319;SDS011;59599;47.608;12.190;2023-07-08T13:58:14;9.13;;;6.30;;
13319;SDS011;59599;47.608;12.190;2023-07-08T14:00:40;9.45;;;5.47;;
13319;SDS011;59599;47.608;12.190;2023-07-08T14:03:10;7.97;;;5.50;;
13319;SDS011;59599;47.608;12.190;2023-07-08T14:05:39;7.03;;;6.03;;
13319;SDS011;59599;47.608;12.190;2023-07-08T14:08:15;6.80;;;5.55;;
13319;SDS011;59599;47.608;12.190;2023-07-08T14:10:42;10.00;;;6.10;;
13319;SDS011;59599;47.608;12.190;2023-07-08T14:13:10;9.02;;;5.60;;
13319;SDS011;59599;47.608;12.190;2023-07-08T14:15:36;9.30;;;5.97;;
13319;SDS011;59599;47.608;12.190;2023-07-08T14:18:03;7.80;;;5.38;;
13319;SDS011;59599;47.608;12.190;2023-07-08T14:20:29;7.43;;;5.85;;
13319;SDS011;59599;47.608;12.190;2023-07-08T14:22:55;7.00;;;5.00;;
13319;SDS011;59599;47.608;12.190;2023-07-08T14:25:21;8.88;;;5.97;;
13319;SDS011;59599;47.608;12.190;2023-07-08T14:27:49;8.23;;;5.82;;
13319;SDS011;59599;47.608;12.190;2023-07-08T14:30:15;7.88;;;5.32;;
13319;SDS011;59599;47.608;12.190;2023-07-08T14:32:41;7.15;;;5.05;;
13319;SDS011;59599;47.608;12.190;2023-07-08T14:35:22;7.07;;;5.60;;
13319;SDS011;59599;47.608;12.190;2023-07-08T14:37:48;7.00;;;5.40;;
13319;SDS011;59599;47.608;12.190;2023-07-08T14:42:40;9.30;;;5.88;;
13319;SDS011;59599;47.608;12.190;2023-07-08T14:45:07;8.48;;;5.60;;
13319;SDS011;59599;47.608;12.190;2023-07-08T14:47:33;7.97;;;5.93;;
13319;SDS011;59599;47.608;12.190;2023-07-08T14:49:59;9.35;;;6.20;;
13319;SDS011;59599;47.608;12.190;2023-07-08T14:52:25;7.65;;;5.90;;
13319;SDS011;59599;47.608;12.190;2023-07-08T14:54:51;7.45;;;6.00;;
13319;SDS011;59599;47.608;12.190;2023-07-08T14:57:17;10.43;;;6.20;;
13319;SDS011;59599;47.608;12.190;2023-07-08T14:59:44;7.88;;;6.28;;
13319;SDS011;59599;47.608;12.190;2023-07-08T15:02:18;7.43;;;5.68;;
13319;SDS011;59599;47.608;12.190;2023-07-08T15:04:44;7.18;;;6.32;;
13319;SDS011;59599;47.608;12.190;2023-07-08T15:07:10;12.02;;;6.22;;
13319;SDS011;59599;47.608;12.190;2023-07-08T15:09:36;6.78;;;5.45;;
13319;SDS011;59599;47.608;12.190;2023-07-08T15:12:02;9.13;;;5.82;;
13319;SDS011;59599;47.608;12.190;2023-07-08T15:14:28;11.00;;;5.97;;
13319;SDS011;59599;47.608;12.190;2023-07-08T15:16:54;9.63;;;5.65;;
13319;SDS011;59599;47.608;12.190;2023-07-08T15:19:20;9.77;;;6.20;;
13319;SDS011;59599;47.608;12.190;2023-07-08T15:21:46;10.02;;;6.18;;
13319;SDS011;59599;47.608;12.190;2023-07-08T15:24:13;9.88;;;6.03;;
13319;SDS011;59599;47.608;12.190;2023-07-08T15:26:40;6.63;;;5.60;;
13319;SDS011;59599;47.608;12.190;2023-07-08T15:29:07;10.85;;;6.15;;
13319;SDS011;59599;47.608;12.190;2023-07-08T15:31:37;8.23;;;6.10;;
13319;SDS011;59599;47.608;12.190;2023-07-08T15:34:07;8.70;;;6.32;;
13319;SDS011;59599;47.608;12.190;2023-07-08T15:36:33;8.05;;;5.80;;
13319;SDS011;59599;47.608;12.190;2023-07-08T15:38:59;6.82;;;6.00;;
13319;SDS011;59599;47.608;12.190;2023-07-08T15:41:25;9.85;;;5.93;;
13319;SDS011;59599;47.608;12.190;2023-07-08T15:43:52;9.07;;;6.05;;
13319;SDS011;59599;47.608;12.190;2023-07-08T15:46:19;7.63;;;6.22;;
13319;SDS011;59599;47.608;12.190;2023-07-08T15:48:45;7.70;;;5.95;;
13319;SDS011;59599;47.608;12.190;2023-07-08T15:51:14;9.25;;;6.00;;
13319;SDS011;59599;47.608;12.190;2023-07-08T15:53:40;7.50;;;6.25;;
13319;SDS011;59599;47.608;12.190;2023-07-08T15:56:13;7.43;;;5.80;;
13319;SDS011;59599;47.608;12.190;2023-07-08T15:58:40;9.55;;;5.90;;
13319;SDS011;59599;47.608;12.190;2023-07-08T16:01:07;9.35;;;6.82;;
13319;SDS011;59599;47.608;12.190;2023-07-08T16:03:40;8.27;;;6.15;;
13319;SDS011;59599;47.608;12.190;2023-07-08T16:06:08;8.18;;;6.60;;
13319;SDS011;59599;47.608;12.190;2023-07-08T16:08:34;8.48;;;6.70;;
13319;SDS011;59599;47.608;12.190;2023-07-08T16:11:02;12.50;;;6.28;;
13319;SDS011;59599;47.608;12.190;2023-07-08T16:13:29;8.60;;;6.40;;
13319;SDS011;59599;47.608;12.190;2023-07-08T16:15:56;12.20;;;6.88;;
13319;SDS011;59599;47.608;12.190;2023-07-08T16:18:22;8.40;;;6.47;;
13319;SDS011;59599;47.608;12.190;2023-07-08T16:20:48;9.05;;;5.97;;
13319;SDS011;59599;47.608;12.190;2023-07-08T16:23:14;11.80;;;6.47;;
13319;SDS011;59599;47.608;12.190;2023-07-08T16:25:44;9.10;;;6.55;;
13319;SDS011;59599;47.608;12.190;2023-07-08T16:28:15;11.10;;;7.07;;
13319;SDS011;59599;47.608;12.190;2023-07-08T16:30:42;7.55;;;6.22;;
13319;SDS011;59599;47.608;12.190;2023-07-08T16:33:08;10.23;;;6.45;;
13319;SDS011;59599;47.608;12.190;2023-07-08T16:35:34;11.18;;;5.97;;
13319;SDS011;59599;47.608;12.190;2023-07-08T16:38:00;9.80;;;6.70;;
13319;SDS011;59599;47.608;12.190;2023-07-08T16:40:26;8.15;;;5.88;;
13319;SDS011;59599;47.608;12.190;2023-07-08T16:42:54;10.50;;;6.50;;
13319;SDS011;59599;47.608;12.190;2023-07-08T16:45:21;8.05;;;6.70;;
13319;SDS011;59599;47.608;12.190;2023-07-08T16:47:47;10.50;;;6.47;;
13319;SDS011;59599;47.608;12.190;2023-07-08T16:50:14;8.00;;;6.72;;
13319;SDS011;59599;47.608;12.190;2023-07-08T16:52:41;7.68;;;6.35;;
13319;SDS011;59599;47.608;12.190;2023-07-08T16:55:13;8.20;;;6.40;;
13319;SDS011;59599;47.608;12.190;2023-07-08T16:57:40;6.65;;;5.93;;
13319;SDS011;59599;47.608;12.190;2023-07-08T17:00:06;8.57;;;6.32;;
13319;SDS011;59599;47.608;12.190;2023-07-08T17:02:34;9.90;;;6.10;;
13319;SDS011;59599;47.608;12.190;2023-07-08T17:05:00;9.88;;;5.70;;
13319;SDS011;59599;47.608;12.190;2023-07-08T17:07:29;7.35;;;5.78;;
13319;SDS011;59599;47.608;12.190;2023-07-08T17:09:55;8.90;;;5.85;;
13319;SDS011;59599;47.608;12.190;2023-07-08T17:12:21;8.23;;;5.80;;
13319;SDS011;59599;47.608;12.190;2023-07-08T17:14:47;8.63;;;5.70;;
13319;SDS011;59599;47.608;12.190;2023-07-08T17:17:13;8.52;;;6.47;;
13319;SDS011;59599;47.608;12.190;2023-07-08T17:19:41;9.45;;;5.88;;
13319;SDS011;59599;47.608;12.190;2023-07-08T17:22:08;10.57;;;6.07;;
13319;SDS011;59599;47.608;12.190;2023-07-08T17:24:34;15.63;;;7.32;;
13319;SDS011;59599;47.608;12.190;2023-07-08T17:27:00;11.40;;;6.55;;
13319;SDS011;59599;47.608;12.190;2023-07-08T17:29:26;10.45;;;6.50;;
13319;SDS011;59599;47.608;12.190;2023-07-08T17:31:52;9.68;;;6.13;;
13319;SDS011;59599;47.608;12.190;2023-07-08T17:34:20;10.88;;;6.38;;
13319;SDS011;59599;47.608;12.190;2023-07-08T17:36:49;8.15;;;6.13;;
13319;SDS011;59599;47.608;12.190;2023-07-08T17:39:15;8.18;;;6.20;;
13319;SDS011;59599;47.608;12.190;2023-07-08T17:41:41;7.97;;;6.18;;
13319;SDS011;59599;47.608;12.190;2023-07-08T17:44:08;9.07;;;5.88;;
13319;SDS011;59599;47.608;12.190;2023-07-08T17:46:34;8.70;;;6.18;;
13319;SDS011;59599;47.608;12.190;2023-07-08T17:49:00;9.13;;;5.90;;
13319;SDS011;59599;47.608;12.190;2023-07-08T17:51:28;10.25;;;5.95;;
13319;SDS011;59599;47.608;12.190;2023-07-08T17:53:55;7.20;;;5.70;;
13319;SDS011;59599;47.608;12.190;2023-07-08T17:56:23;6.60;;;5.53;;
13319;SDS011;59599;47.608;12.190;2023-07-08T17:58:50;8.25;;;5.47;;
13319;SDS011;59599;47.608;12.190;2023-07-08T18:01:18;7.95;;;5.68;;
13319;SDS011;59599;47.608;12.190;2023-07-08T18:03:46;15.85;;;6.68;;
13319;SDS011;59599;47.608;12.190;2023-07-08T18:06:13;11.27;;;5.72;;
13319;SDS011;59599;47.608;12.190;2023-07-08T18:08:39;7.75;;;5.80;;
13319;SDS011;59599;47.608;12.190;2023-07-08T18:11:06;10.38;;;5.93;;
13319;SDS011;59599;47.608;12.190;2023-07-08T18:13:36;9.25;;;6.03;;
13319;SDS011;59599;47.608;12.190;2023-07-08T18:16:03;9.93;;;5.70;;
13319;SDS011;59599;47.608;12.190;2023-07-08T18:18:37;6.82;;;5.78;;
13319;SDS011;59599;47.608;12.190;2023-07-08T18:21:04;6.53;;;5.45;;
13319;SDS011;59599;47.608;12.190;2023-07-08T18:23:38;8.45;;;5.70;;
13319;SDS011;59599;47.608;12.190;2023-07-08T18:26:04;11.07;;;6.18;;
13319;SDS011;59599;47.608;12.190;2023-07-08T18:28:29;11.27;;;6.50;;
13319;SDS011;59599;47.608;12.190;2023-07-08T18:30:55;9.63;;;6.82;;
13319;SDS011;59599;47.608;12.190;2023-07-08T18:33:21;8.70;;;5.90;;
13319;SDS011;59599;47.608;12.190;2023-07-08T18:35:47;5.93;;;5.18;;
13319;SDS011;59599;47.608;12.190;2023-07-08T18:38:13;9.52;;;5.95;;
13319;SDS011;59599;47.608;12.190;2023-07-08T18:40:40;7.53;;;5.57;;
13319;SDS011;59599;47.608;12.190;2023-07-08T18:43:21;11.32;;;5.88;;
13319;SDS011;59599;47.608;12.190;2023-07-08T18:45:48;9.88;;;5.75;;
13319;SDS011;59599;47.608;12.190;2023-07-08T18:48:15;7.60;;;5.78;;
13319;SDS011;59599;47.608;12.190;2023-07-08T18:50:42;11.95;;;6.22;;
13319;SDS011;59599;47.608;12.190;2023-07-08T18:53:15;8.20;;;6.07;;
13319;SDS011;59599;47.608;12.190;2023-07-08T18:55:41;8.10;;;5.53;;
13319;SDS011;59599;47.608;12.190;2023-07-08T18:58:09;8.02;;;5.95;;
13319;SDS011;59599;47.608;12.190;2023-07-08T19:00:36;9.15;;;5.85;;
13319;SDS011;59599;47.608;12.190;2023-07-08T19:03:02;10.07;;;6.15;;
13319;SDS011;59599;47.608;12.190;2023-07-08T19:05:30;9.65;;;6.05;;
13319;SDS011;59599;47.608;12.190;2023-07-08T19:07:56;8.70;;;6.22;;
13319;SDS011;59599;47.608;12.190;2023-07-08T19:10:24;8.95;;;6.50;;
13319;SDS011;59599;47.608;12.190;2023-07-08T19:12:53;10.48;;;6.55;;
13319;SDS011;59599;47.608;12.190;2023-07-08T19:15:23;8.93;;;6.55;;
13319;SDS011;59599;47.608;12.190;2023-07-08T19:17:54;9.68;;;6.25;;
13319;SDS011;59599;47.608;12.190;2023-07-08T19:20:22;10.90;;;6.47;;
13319;SDS011;59599;47.608;12.190;2023-07-08T19:22:53;10.00;;;6.10;;
13319;SDS011;59599;47.608;12.190;2023-07-08T19:25:20;8.93;;;5.43;;
13319;SDS011;59599;47.608;12.190;2023-07-08T19:27:47;11.13;;;6.90;;
13319;SDS011;59599;47.608;12.190;2023-07-08T19:30:13;9.18;;;5.38;;